Terminal Aerodrome Forecast
Issued by NWS Wilmington, OH

Current Version | Previous Version | Graphics & Text | Print | Product List | Glossary On
Versions: 1 2 3 4 5 6 7 8 9 10 11 12 13 14 15
000
FTUS41 KILN 282300
TAFILN
TAF
KILN 282334Z 2900/2924 25010KT P6SM BKN100 OVC250
     FM290100 26012KT P6SM SCT100 BKN200
     FM290900 27006KT P6SM SCT200
     FM291400 26011KT P6SM SCT035
     FM291800 26012G22KT P6SM BKN040=

USA.gov is the U.S. government's official web portal to all federal, state and local government web resources and services.